createdAt,value
2017-11-09T00:01:33.831Z,20.83
2017-11-09T00:04:06.278Z,19.27
2017-11-09T00:06:33.463Z,18.45
2017-11-09T00:08:59.929Z,19.10
2017-11-09T00:11:26.382Z,19.10
2017-11-09T00:13:52.821Z,21.52
2017-11-09T00:16:19.264Z,18.27
2017-11-09T00:18:46.449Z,19.48
2017-11-09T00:21:12.879Z,17.77
2017-11-09T00:23:39.280Z,19.12
2017-11-09T00:26:06.461Z,19.42
2017-11-09T00:28:32.896Z,18.95
2017-11-09T00:30:59.336Z,19.27
2017-11-09T00:33:25.761Z,17.60
2017-11-09T00:35:52.149Z,18.00
2017-11-09T00:38:18.593Z,17.50
2017-11-09T00:40:45.764Z,18.40
2017-11-09T00:43:12.193Z,18.50
2017-11-09T00:45:38.620Z,18.60
2017-11-09T00:48:06.471Z,17.17
2017-11-09T00:50:33.685Z,18.85
2017-11-09T00:53:00.084Z,16.62
2017-11-09T00:55:26.500Z,19.25
2017-11-09T00:57:53.651Z,20.30
2017-11-09T01:00:20.836Z,18.73
2017-11-09T01:02:47.281Z,18.35
2017-11-09T01:05:13.699Z,18.00
2017-11-09T01:07:40.230Z,18.30
2017-11-09T01:10:06.654Z,17.73
2017-11-09T01:12:33.076Z,18.73
2017-11-09T01:14:59.519Z,18.35
2017-11-09T01:17:25.996Z,17.77
2017-11-09T01:19:52.458Z,17.33
2017-11-09T01:22:19.597Z,16.52
2017-11-09T01:24:46.035Z,19.02
2017-11-09T01:27:12.445Z,19.20
2017-11-09T01:29:38.854Z,18.23
2017-11-09T01:32:05.309Z,17.25
2017-11-09T01:34:31.741Z,17.80
2017-11-09T01:36:58.166Z,16.70
2017-11-09T01:39:24.597Z,18.40
2017-11-09T01:41:51.057Z,18.37
2017-11-09T01:44:17.493Z,16.02
2017-11-09T01:46:43.907Z,16.67
2017-11-09T01:49:10.336Z,16.23
2017-11-09T01:51:36.795Z,15.00
2017-11-09T01:54:03.246Z,15.70
2017-11-09T01:56:30.389Z,14.00
2017-11-09T01:58:57.605Z,12.70
2017-11-09T02:01:24.055Z,14.10
2017-11-09T02:03:50.487Z,13.53
2017-11-09T02:06:16.944Z,15.10
2017-11-09T02:08:44.086Z,12.90
2017-11-09T02:11:10.502Z,13.37
2017-11-09T02:13:36.925Z,13.77
2017-11-09T02:16:03.386Z,14.00
2017-11-09T02:18:29.817Z,14.95
2017-11-09T02:20:56.317Z,12.20
2017-11-09T02:23:22.806Z,12.20
2017-11-09T02:25:49.293Z,12.27
2017-11-09T02:28:15.746Z,12.50
2017-11-09T02:30:42.225Z,13.60
2017-11-09T02:33:08.702Z,15.15
2017-11-09T02:35:35.893Z,12.98
2017-11-09T02:38:03.101Z,12.73
2017-11-09T02:40:29.552Z,13.55
2017-11-09T02:42:55.973Z,14.43
2017-11-09T02:45:22.475Z,14.07
2017-11-09T02:47:48.963Z,13.62
2017-11-09T02:50:16.225Z,13.55
2017-11-09T02:52:43.402Z,13.95
2017-11-09T02:55:09.893Z,13.45
2017-11-09T02:57:37.114Z,15.27
2017-11-09T03:00:03.597Z,16.35
2017-11-09T03:02:30.749Z,13.98
2017-11-09T03:04:57.921Z,14.20
2017-11-09T03:07:24.372Z,15.27
2017-11-09T03:09:50.838Z,13.95
2017-11-09T03:12:18.036Z,17.85
2017-11-09T03:14:44.492Z,15.27
2017-11-09T03:17:10.922Z,16.70
2017-11-09T03:19:37.434Z,14.57
2017-11-09T03:22:03.852Z,15.97
2017-11-09T03:24:31.125Z,14.73
2017-11-09T03:26:57.532Z,14.50
2017-11-09T03:29:24.699Z,14.43
2017-11-09T03:31:51.129Z,14.90
2017-11-09T03:34:17.521Z,15.60
2017-11-09T03:36:43.948Z,13.75
2017-11-09T03:39:10.356Z,15.10
2017-11-09T03:41:36.780Z,14.98
2017-11-09T03:44:03.249Z,15.13
2017-11-09T03:46:29.716Z,14.50
2017-11-09T03:48:56.869Z,15.07
2017-11-09T03:51:24.020Z,14.80
2017-11-09T03:53:51.191Z,13.90
2017-11-09T03:56:17.592Z,13.98
2017-11-09T03:58:44.773Z,15.27
2017-11-09T04:01:11.196Z,15.63
2017-11-09T04:03:37.604Z,16.53
2017-11-09T04:06:04.777Z,14.50
2017-11-09T04:08:31.198Z,15.88
2017-11-09T04:10:58.365Z,17.67
2017-11-09T04:13:24.788Z,17.67
2017-11-09T04:15:51.199Z,16.87
2017-11-09T04:18:17.600Z,13.98
2017-11-09T04:20:44.055Z,16.33
2017-11-09T04:23:10.477Z,16.67
2017-11-09T04:25:36.908Z,20.42
2017-11-09T04:28:03.311Z,20.50
2017-11-09T04:30:29.848Z,18.30
2017-11-09T04:32:56.245Z,19.02
2017-11-09T04:35:23.384Z,19.55
2017-11-09T04:37:50.556Z,19.00
2017-11-09T04:40:17.193Z,19.83
2017-11-09T04:42:44.368Z,19.70
2017-11-09T04:45:10.783Z,20.52
2017-11-09T04:47:37.226Z,18.17
2017-11-09T04:50:03.633Z,20.70
2017-11-09T04:52:30.804Z,18.65
2017-11-09T04:54:57.222Z,19.25
2017-11-09T04:57:23.632Z,20.08
2017-11-09T04:59:50.036Z,19.87
2017-11-09T05:02:16.553Z,19.52
2017-11-09T05:04:43.625Z,19.30
2017-11-09T05:07:10.027Z,21.27
2017-11-09T05:09:36.473Z,18.92
2017-11-09T05:12:02.905Z,19.05
2017-11-09T05:14:29.324Z,18.77
2017-11-09T05:16:55.748Z,19.42
2017-11-09T05:19:22.172Z,18.85
2017-11-09T05:21:48.612Z,18.12
2017-11-09T05:24:15.040Z,19.92
2017-11-09T05:26:41.443Z,18.95
2017-11-09T05:29:07.869Z,20.10
2017-11-09T05:31:34.542Z,19.52
2017-11-09T05:34:01.040Z,18.83
2017-11-09T05:36:27.448Z,20.40
2017-11-09T05:38:53.860Z,19.65
2017-11-09T05:41:20.302Z,20.40
2017-11-09T05:43:46.747Z,20.62
2017-11-09T05:46:13.179Z,19.85
2017-11-09T05:48:39.640Z,18.10
2017-11-09T05:51:06.053Z,17.52
2017-11-09T05:53:32.586Z,17.50
2017-11-09T05:55:59.049Z,18.98
2017-11-09T05:58:25.474Z,19.73
2017-11-09T06:00:51.960Z,18.50
2017-11-09T06:03:18.397Z,18.35
2017-11-09T06:05:44.827Z,21.58
2017-11-09T06:08:11.269Z,17.70
2017-11-09T06:10:37.702Z,18.27
2017-11-09T06:13:04.143Z,17.30
2017-11-09T06:15:30.628Z,17.40
2017-11-09T06:17:57.821Z,18.67
2017-11-09T06:20:24.288Z,20.30
2017-11-09T06:22:50.696Z,19.20
2017-11-09T06:25:17.122Z,18.65
2017-11-09T06:27:43.528Z,18.05
2017-11-09T06:30:09.990Z,21.37
2017-11-09T06:32:36.403Z,19.08
2017-11-09T06:35:02.858Z,18.90
2017-11-09T06:37:29.287Z,20.10
2017-11-09T06:39:55.738Z,21.30
2017-11-09T06:42:22.154Z,18.35
2017-11-09T06:44:48.648Z,19.20
2017-11-09T06:47:15.796Z,19.85
2017-11-09T06:49:42.952Z,21.35
2017-11-09T06:52:09.389Z,19.02
2017-11-09T06:54:35.781Z,21.40
2017-11-09T06:57:02.966Z,18.67
2017-11-09T06:59:30.124Z,18.55
2017-11-09T07:01:56.533Z,18.10
2017-11-09T07:04:23.698Z,18.33
2017-11-09T07:06:50.872Z,19.83
2017-11-09T07:09:17.319Z,20.30
2017-11-09T07:11:43.744Z,19.17
2017-11-09T07:14:10.217Z,20.27
2017-11-09T07:16:36.645Z,18.67
2017-11-09T07:19:03.081Z,18.80
2017-11-09T07:21:29.546Z,20.73
2017-11-09T07:23:56.694Z,19.50
2017-11-09T07:26:23.852Z,20.67
2017-11-09T07:28:50.305Z,20.30
2017-11-09T07:31:16.730Z,18.85
2017-11-09T07:33:43.201Z,20.67
2017-11-09T07:36:09.633Z,19.70
2017-11-09T07:38:36.053Z,19.48
2017-11-09T07:41:02.524Z,17.83
2017-11-09T07:43:28.965Z,20.55
2017-11-09T07:45:55.394Z,19.93
2017-11-09T07:48:21.818Z,22.03
2017-11-09T07:50:48.255Z,20.27
2017-11-09T07:53:14.673Z,22.70
2017-11-09T07:55:41.084Z,20.08
2017-11-09T07:58:07.516Z,21.50
2017-11-09T08:00:33.941Z,19.58
2017-11-09T08:03:00.373Z,20.33
2017-11-09T08:05:26.785Z,22.27
2017-11-09T08:07:53.190Z,20.70
2017-11-09T08:10:20.425Z,19.50
2017-11-09T08:12:46.837Z,20.55
2017-11-09T08:15:13.274Z,19.85
2017-11-09T08:17:39.689Z,17.62
2017-11-09T08:20:06.186Z,20.20
2017-11-09T08:22:33.364Z,28.60
2017-11-09T08:25:02.611Z,27.77
2017-11-09T08:27:29.916Z,21.42
2017-11-09T08:29:57.080Z,20.75
2017-11-09T08:32:25.519Z,18.55
2017-11-09T08:34:52.695Z,22.13
2017-11-09T08:37:19.103Z,20.30
2017-11-09T08:39:46.269Z,19.70
2017-11-09T08:42:12.708Z,22.77
2017-11-09T08:44:39.238Z,20.75
2017-11-09T08:47:05.696Z,20.50
2017-11-09T08:49:32.169Z,18.40
2017-11-09T08:51:58.581Z,21.25
2017-11-09T08:54:24.993Z,22.03
2017-11-09T08:56:51.422Z,21.93
2017-11-09T08:59:17.861Z,21.37
2017-11-09T09:01:44.301Z,20.53
2017-11-09T09:04:10.704Z,19.37
2017-11-09T09:06:37.153Z,20.92
2017-11-09T09:09:03.629Z,23.70
2017-11-09T09:11:30.129Z,23.93
2017-11-09T09:13:56.594Z,24.03
2017-11-09T09:16:23.040Z,22.67
2017-11-09T09:18:49.509Z,20.73
2017-11-09T09:21:21.981Z,21.73
2017-11-09T09:23:48.489Z,21.77
2017-11-09T09:26:24.864Z,19.10
2017-11-09T09:28:54.886Z,21.37
2017-11-09T09:31:22.081Z,22.33
2017-11-09T09:33:53.464Z,20.60
2017-11-09T09:36:20.718Z,22.13
2017-11-09T09:38:49.845Z,21.13
2017-11-09T09:41:17.020Z,19.70
2017-11-09T09:43:43.601Z,18.87
2017-11-09T09:46:10.048Z,19.83
2017-11-09T09:48:37.273Z,19.67
2017-11-09T09:51:03.968Z,20.10
2017-11-09T09:53:30.357Z,20.70
2017-11-09T09:55:56.756Z,21.73
2017-11-09T09:58:23.190Z,20.10
2017-11-09T10:00:49.613Z,21.13
2017-11-09T10:03:16.041Z,18.07
2017-11-09T10:05:42.465Z,20.70
2017-11-09T10:08:08.934Z,21.67
2017-11-09T10:10:35.437Z,19.37
2017-11-09T10:13:01.874Z,19.30
2017-11-09T10:15:28.302Z,18.00
2017-11-09T10:17:54.705Z,18.53
2017-11-09T10:20:21.915Z,18.70
2017-11-09T10:22:48.321Z,18.23
2017-11-09T10:25:14.744Z,19.47
2017-11-09T10:27:41.155Z,17.07
2017-11-09T10:30:08.337Z,17.87
2017-11-09T10:32:34.785Z,16.50
2017-11-09T10:35:04.145Z,17.43
2017-11-09T10:37:31.290Z,20.10
2017-11-09T10:39:58.464Z,18.67
2017-11-09T10:42:24.921Z,18.40
2017-11-09T10:44:51.364Z,18.33
2017-11-09T10:47:17.839Z,15.57
2017-11-09T10:49:45.032Z,16.60
2017-11-09T10:52:11.521Z,17.93
2017-11-09T10:54:37.943Z,16.23
2017-11-09T10:57:04.384Z,15.10
2017-11-09T10:59:31.568Z,15.80
2017-11-09T11:01:57.985Z,14.10
2017-11-09T11:04:24.408Z,15.20
2017-11-09T11:06:50.824Z,13.10
2017-11-09T11:09:17.360Z,12.00
2017-11-09T11:11:43.744Z,12.37
2017-11-09T11:14:10.128Z,12.43
2017-11-09T11:16:36.552Z,11.40
2017-11-09T11:19:02.950Z,11.70
2017-11-09T11:21:29.380Z,9.60
2017-11-09T11:23:55.780Z,8.70
2017-11-09T11:26:22.917Z,8.53
2017-11-09T11:28:50.067Z,10.80
2017-11-09T11:31:17.229Z,10.10
2017-11-09T11:33:44.408Z,11.70
2017-11-09T11:36:10.803Z,11.07
2017-11-09T11:38:37.944Z,10.73
2017-11-09T11:41:04.358Z,10.30
2017-11-09T11:43:30.789Z,9.70
2017-11-09T11:45:57.250Z,9.47
2017-11-09T11:48:23.673Z,9.50
2017-11-09T11:50:50.076Z,8.80
2017-11-09T11:53:16.501Z,9.00
2017-11-09T11:55:42.908Z,9.17
2017-11-09T11:58:09.351Z,9.83
2017-11-09T12:00:35.778Z,11.53
2017-11-09T12:03:02.169Z,9.40
2017-11-09T12:05:28.587Z,10.40
2017-11-09T12:07:55.032Z,8.87
2017-11-09T12:10:22.300Z,11.03
2017-11-09T12:12:49.468Z,9.80
2017-11-09T12:15:15.896Z,11.00
2017-11-09T12:17:42.333Z,9.73
2017-11-09T12:20:08.725Z,9.83
2017-11-09T12:22:35.156Z,11.23
2017-11-09T12:25:01.582Z,10.30
2017-11-09T12:27:27.993Z,10.73
2017-11-09T12:29:54.426Z,10.00
2017-11-09T12:32:20.836Z,10.30
2017-11-09T12:34:47.285Z,11.33
2017-11-09T12:37:13.825Z,9.37
2017-11-09T12:39:40.236Z,10.83
2017-11-09T12:42:06.776Z,9.23
2017-11-09T12:44:33.233Z,9.70
2017-11-09T12:46:59.702Z,12.60
2017-11-09T12:49:26.126Z,8.70
2017-11-09T12:51:52.650Z,9.60
2017-11-09T12:54:19.052Z,8.57
2017-11-09T12:56:45.472Z,8.50
2017-11-09T12:59:11.893Z,9.27
2017-11-09T13:01:38.337Z,9.00
2017-11-09T13:04:04.793Z,10.10
2017-11-09T13:06:31.242Z,10.30
2017-11-09T13:08:57.690Z,12.60
2017-11-09T13:11:24.138Z,12.50
2017-11-09T13:13:51.378Z,13.10
2017-11-09T13:16:17.808Z,13.10
2017-11-09T13:18:44.241Z,14.40
2017-11-09T13:21:10.713Z,12.53
2017-11-09T13:23:37.897Z,14.77
2017-11-09T13:26:04.325Z,15.80
2017-11-09T13:28:30.763Z,16.03
2017-11-09T13:30:57.344Z,15.47
2017-11-09T13:33:23.740Z,18.00
2017-11-09T13:35:50.154Z,17.10
2017-11-09T13:38:16.595Z,18.30
2017-11-09T13:40:43.024Z,18.03
2017-11-09T13:43:10.309Z,16.97
2017-11-09T13:45:40.705Z,17.80
2017-11-09T13:48:07.124Z,16.30
2017-11-09T13:50:33.550Z,17.10
2017-11-09T13:52:59.965Z,16.47
2017-11-09T13:55:27.146Z,16.13
2017-11-09T13:57:53.598Z,17.30
2017-11-09T14:00:20.026Z,15.50
2017-11-09T14:02:46.442Z,16.83
2017-11-09T14:05:14.705Z,15.93
2017-11-09T14:07:41.093Z,15.90
2017-11-09T14:10:14.537Z,16.20
2017-11-09T14:12:40.994Z,16.97
2017-11-09T14:15:07.417Z,16.20
2017-11-09T14:17:33.860Z,15.33
2017-11-09T14:20:00.276Z,15.30
2017-11-09T14:22:26.709Z,14.53
2017-11-09T14:24:53.138Z,15.67
2017-11-09T14:27:19.622Z,14.30
2017-11-09T14:29:46.068Z,15.10
2017-11-09T14:32:12.501Z,14.60
2017-11-09T14:34:38.944Z,14.57
2017-11-09T14:37:05.359Z,14.70
2017-11-09T14:39:31.801Z,15.10
2017-11-09T14:41:58.233Z,13.17
2017-11-09T14:44:24.632Z,17.93
2017-11-09T14:46:51.064Z,16.30
2017-11-09T14:49:17.496Z,16.23
2017-11-09T14:51:43.919Z,15.53
2017-11-09T14:54:10.322Z,16.63
2017-11-09T14:56:37.492Z,16.90
2017-11-09T14:59:03.900Z,17.00
2017-11-09T15:01:31.057Z,20.87
2017-11-09T15:03:57.480Z,18.00
2017-11-09T15:06:24.659Z,15.93
2017-11-09T15:08:51.085Z,16.67
2017-11-09T15:11:17.518Z,17.87
2017-11-09T15:13:43.941Z,16.83
2017-11-09T15:16:10.349Z,15.73
2017-11-09T15:18:36.789Z,16.87
2017-11-09T15:21:03.943Z,18.13
2017-11-09T15:23:31.297Z,19.33
2017-11-09T15:26:02.311Z,16.77
2017-11-09T15:28:28.745Z,16.00
2017-11-09T15:30:55.220Z,16.90
2017-11-09T15:33:21.698Z,15.10
2017-11-09T15:35:52.986Z,13.50
2017-11-09T15:38:20.148Z,18.87
2017-11-09T15:40:46.553Z,15.27
2017-11-09T15:43:13.008Z,15.50
2017-11-09T15:45:40.189Z,15.50
2017-11-09T15:48:06.633Z,14.33
2017-11-09T15:50:33.044Z,13.60
2017-11-09T15:52:59.464Z,16.47
2017-11-09T15:55:25.869Z,16.40
2017-11-09T15:57:52.296Z,14.87
2017-11-09T16:00:18.752Z,14.07
2017-11-09T16:02:45.941Z,15.97
2017-11-09T16:05:12.353Z,14.67
2017-11-09T16:07:38.802Z,15.40
2017-11-09T16:10:05.208Z,16.73
2017-11-09T16:12:32.347Z,15.60
2017-11-09T16:14:59.522Z,14.40
2017-11-09T16:17:26.047Z,14.83
2017-11-09T16:19:52.463Z,17.23
2017-11-09T16:22:18.884Z,14.73
2017-11-09T16:24:45.349Z,13.90
2017-11-09T16:27:11.748Z,14.83
2017-11-09T16:29:38.172Z,16.50
2017-11-09T16:32:04.609Z,17.20
2017-11-09T16:34:31.038Z,18.07
2017-11-09T16:36:57.480Z,19.47
2017-11-09T16:39:23.914Z,18.70
2017-11-09T16:41:50.326Z,20.70
2017-11-09T16:44:16.748Z,23.17
2017-11-09T16:46:43.154Z,28.17
2017-11-09T16:49:09.601Z,30.80
2017-11-09T16:51:35.991Z,32.50
2017-11-09T16:54:02.412Z,31.20
2017-11-09T16:56:28.861Z,27.57
2017-11-09T16:58:55.288Z,24.60
2017-11-09T17:01:22.441Z,26.40
2017-11-09T17:03:49.569Z,24.57
2017-11-09T17:06:16.033Z,22.90
2017-11-09T17:08:43.197Z,25.23
2017-11-09T17:11:09.708Z,23.57
2017-11-09T17:13:36.909Z,23.87
2017-11-09T17:16:03.342Z,27.60
2017-11-09T17:18:33.702Z,24.93
2017-11-09T17:21:00.959Z,27.67
2017-11-09T17:23:27.367Z,27.20
2017-11-09T17:25:53.780Z,28.33
2017-11-09T17:28:20.366Z,28.57
2017-11-09T17:30:47.608Z,26.50
2017-11-09T17:33:14.004Z,24.57
2017-11-09T17:35:40.432Z,24.53
2017-11-09T17:38:06.855Z,26.05
2017-11-09T17:40:33.349Z,25.13
2017-11-09T17:43:00.480Z,24.33
2017-11-09T17:45:26.891Z,24.10
2017-11-09T17:47:53.327Z,24.80
2017-11-09T17:50:20.616Z,25.30
2017-11-09T17:52:48.983Z,23.50
2017-11-09T17:55:15.436Z,25.40
2017-11-09T17:57:42.141Z,24.90
2017-11-09T18:00:14.785Z,25.33
2017-11-09T18:02:41.280Z,25.17
2017-11-09T18:05:08.018Z,26.00
2017-11-09T18:07:34.494Z,24.13
2017-11-09T18:10:00.981Z,22.92
2017-11-09T18:12:27.409Z,23.48
2017-11-09T18:14:54.344Z,22.90
2017-11-09T18:17:20.840Z,22.13
2017-11-09T18:19:47.628Z,25.13
2017-11-09T18:22:17.926Z,23.70
2017-11-09T18:24:45.134Z,26.08
2017-11-09T18:27:12.529Z,27.40
2017-11-09T18:29:39.154Z,25.70
2017-11-09T18:32:05.595Z,24.43
2017-11-09T18:34:32.025Z,25.12
2017-11-09T18:36:58.490Z,27.63
2017-11-09T18:39:25.668Z,33.38
2017-11-09T18:41:52.826Z,36.30
2017-11-09T18:44:20.000Z,35.50
2017-11-09T18:46:46.412Z,35.00
2017-11-09T18:49:13.121Z,34.55
2017-11-09T18:51:39.770Z,31.37
2017-11-09T18:54:06.940Z,29.20
2017-11-09T18:56:33.408Z,28.42
2017-11-09T18:59:01.950Z,30.73
2017-11-09T19:01:28.437Z,27.53
2017-11-09T19:03:54.873Z,28.90
2017-11-09T19:06:21.384Z,26.08
2017-11-09T19:08:47.788Z,27.00
2017-11-09T19:11:15.461Z,28.55
2017-11-09T19:13:42.029Z,26.90
2017-11-09T19:16:08.834Z,28.87
2017-11-09T19:18:35.280Z,27.50
2017-11-09T19:21:02.636Z,28.55
2017-11-09T19:23:29.264Z,27.97
2017-11-09T19:25:55.890Z,27.10
2017-11-09T19:28:22.349Z,27.53
2017-11-09T19:30:48.805Z,26.97
2017-11-09T19:33:15.294Z,28.30
2017-11-09T19:35:46.903Z,28.00
2017-11-09T19:38:14.168Z,25.70
2017-11-09T19:40:41.705Z,24.33
2017-11-09T19:43:08.181Z,24.90
2017-11-09T19:45:34.622Z,27.00
2017-11-09T19:48:01.801Z,29.30
2017-11-09T19:50:28.281Z,29.47
2017-11-09T19:52:55.013Z,29.17
2017-11-09T19:55:21.549Z,28.30
2017-11-09T19:57:47.982Z,29.53
2017-11-09T20:00:14.765Z,28.20
2017-11-09T20:02:41.316Z,30.27
2017-11-09T20:05:07.785Z,32.53
2017-11-09T20:07:34.216Z,28.97
2017-11-09T20:10:00.677Z,27.63
2017-11-09T20:12:27.088Z,29.03
2017-11-09T20:14:53.530Z,28.67
2017-11-09T20:17:20.005Z,29.15
2017-11-09T20:19:46.479Z,28.15
2017-11-09T20:22:13.113Z,28.03
2017-11-09T20:24:39.616Z,28.43
2017-11-09T20:27:06.135Z,26.45
2017-11-09T20:29:33.548Z,28.23
2017-11-09T20:32:00.481Z,27.30
2017-11-09T20:34:27.841Z,27.20
2017-11-09T20:36:55.915Z,26.63
2017-11-09T20:39:22.610Z,27.27
2017-11-09T20:41:49.177Z,27.58
2017-11-09T20:44:15.817Z,29.85
2017-11-09T20:46:42.341Z,28.00
2017-11-09T20:49:09.598Z,24.90
2017-11-09T20:51:36.213Z,26.73
2017-11-09T20:54:02.850Z,27.13
2017-11-09T20:56:29.328Z,27.70
2017-11-09T20:58:55.726Z,29.00
2017-11-09T21:01:22.202Z,25.60
2017-11-09T21:03:48.665Z,26.87
2017-11-09T21:06:15.173Z,26.73
2017-11-09T21:08:42.376Z,25.20
2017-11-09T21:11:08.893Z,24.67
2017-11-09T21:13:35.429Z,25.05
2017-11-09T21:16:02.688Z,24.45
2017-11-09T21:18:29.965Z,22.10
2017-11-09T21:20:57.260Z,24.17
2017-11-09T21:23:23.809Z,27.30
2017-11-09T21:25:50.446Z,26.87
2017-11-09T21:28:17.628Z,25.70
2017-11-09T21:30:44.277Z,29.27
2017-11-09T21:33:10.722Z,25.10
2017-11-09T21:35:38.181Z,26.20
2017-11-09T21:38:05.502Z,25.27
2017-11-09T21:40:33.982Z,24.10
2017-11-09T21:43:02.116Z,26.05
2017-11-09T21:45:29.819Z,25.30
2017-11-09T21:47:58.747Z,24.73
2017-11-09T21:50:27.938Z,27.83
2017-11-09T21:52:56.541Z,23.93
2017-11-09T21:55:26.419Z,24.40
2017-11-09T21:57:55.900Z,26.87
2017-11-09T22:00:24.191Z,24.40
2017-11-09T22:02:51.593Z,24.13
2017-11-09T22:05:19.311Z,24.20
2017-11-09T22:07:46.454Z,25.07
2017-11-09T22:10:13.281Z,23.90
2017-11-09T22:12:40.681Z,26.40
2017-11-09T22:15:07.716Z,24.70
2017-11-09T22:17:34.250Z,26.73
2017-11-09T22:20:00.893Z,26.10
2017-11-09T22:22:27.768Z,26.67
2017-11-09T22:24:54.563Z,26.33
2017-11-09T22:27:22.033Z,27.48
2017-11-09T22:29:48.841Z,28.20
2017-11-09T22:32:15.337Z,27.10
2017-11-09T22:34:41.768Z,27.50
2017-11-09T22:37:08.176Z,28.33
2017-11-09T22:39:34.656Z,27.20
2017-11-09T22:42:01.349Z,28.83
2017-11-09T22:44:27.769Z,28.67
2017-11-09T22:46:54.594Z,27.20
2017-11-09T22:49:21.214Z,28.00
2017-11-09T22:51:47.663Z,26.00
2017-11-09T22:54:14.839Z,25.87
2017-11-09T22:56:41.241Z,27.20
2017-11-09T22:59:08.401Z,28.00
2017-11-09T23:01:35.609Z,26.20
2017-11-09T23:04:02.062Z,25.30
2017-11-09T23:06:28.457Z,26.83
2017-11-09T23:08:54.877Z,29.02
2017-11-09T23:11:21.393Z,27.20
2017-11-09T23:13:47.870Z,27.65
2017-11-09T23:16:14.272Z,25.70
2017-11-09T23:18:40.713Z,26.17
2017-11-09T23:21:07.212Z,24.90
2017-11-09T23:23:34.370Z,23.30
2017-11-09T23:26:00.809Z,25.37
2017-11-09T23:28:27.209Z,23.20
2017-11-09T23:30:53.745Z,27.33
2017-11-09T23:33:21.116Z,25.40
2017-11-09T23:35:48.288Z,23.80
2017-11-09T23:38:14.705Z,25.30
2017-11-09T23:40:41.961Z,22.35
2017-11-09T23:43:09.150Z,23.27
2017-11-09T23:45:35.585Z,22.70
2017-11-09T23:48:01.997Z,24.63
2017-11-09T23:50:28.595Z,24.50
2017-11-09T23:52:55.016Z,22.90
2017-11-09T23:55:21.445Z,24.57
2017-11-09T23:57:47.909Z,23.30
